createdAt,value
2017-04-28T00:08:01.788Z,4.4
2017-04-28T00:18:13.351Z,4.1
2017-04-28T00:28:24.917Z,4.4
2017-04-28T00:38:36.447Z,4.3
2017-04-28T00:48:48.051Z,4.2
2017-04-28T00:58:59.609Z,3.8
2017-04-28T01:09:11.181Z,3.8
2017-04-28T01:19:22.765Z,3.4
2017-04-28T01:29:34.383Z,3.4
2017-04-28T01:39:46.038Z,3.4
2017-04-28T01:49:57.630Z,3.4
2017-04-28T02:00:09.257Z,3.5
2017-04-28T02:10:20.864Z,3.5
2017-04-28T02:20:32.511Z,3.4
2017-04-28T02:30:44.179Z,3.4
2017-04-28T02:40:55.766Z,3.3
2017-04-28T02:51:07.378Z,3.2
2017-04-28T03:01:19.062Z,3.1
2017-04-28T03:11:30.677Z,3.1
2017-04-28T03:21:42.375Z,3
2017-04-28T03:31:54.109Z,2.8
2017-04-28T03:42:05.886Z,2.4
2017-04-28T03:52:17.665Z,2.3
2017-04-28T04:02:29.533Z,2.2
2017-04-28T04:12:41.399Z,2.4
2017-04-28T04:22:53.251Z,2.5
2017-04-28T04:33:05.002Z,2.3
2017-04-28T04:43:16.657Z,1.9
2017-04-28T04:53:28.314Z,1.8
2017-04-28T05:03:40.004Z,2.1
2017-04-28T05:13:51.622Z,2.6
2017-04-28T05:24:03.034Z,2.8
2017-04-28T05:34:14.358Z,3
2017-04-28T05:44:25.580Z,3.3
2017-04-28T05:54:36.766Z,3.7
2017-04-28T06:04:47.910Z,3.8
2017-04-28T06:14:59.072Z,4.1
2017-04-28T06:25:10.190Z,4.3
2017-04-28T06:35:21.326Z,4.4
2017-04-28T06:45:32.356Z,4.6
2017-04-28T06:55:43.402Z,4.7
2017-04-28T07:05:54.398Z,4.8
2017-04-28T07:16:05.307Z,5
2017-04-28T07:26:16.086Z,5.2
2017-04-28T07:36:26.891Z,5.3
2017-04-28T07:46:37.580Z,5.6
2017-04-28T07:56:48.212Z,5.8
2017-04-28T08:06:58.777Z,6
2017-04-28T08:17:09.351Z,6.1
2017-04-28T08:27:19.839Z,6.4
2017-04-28T08:37:30.180Z,7.1
2017-04-28T08:47:40.364Z,7.3
2017-04-28T08:57:50.553Z,7.2
2017-04-28T09:08:00.957Z,7
2017-04-28T09:18:11.398Z,6.4
2017-04-28T09:28:21.875Z,6.6
2017-04-28T09:38:32.364Z,6.7
2017-04-28T09:48:42.912Z,7
2017-04-28T09:58:53.491Z,7.2
2017-04-28T10:09:03.901Z,7.5
2017-04-28T10:19:14.349Z,7.4
2017-04-28T10:29:24.848Z,7.5
2017-04-28T10:39:35.257Z,7.8
2017-04-28T10:49:45.639Z,7.9
2017-04-28T10:59:55.960Z,7.8
2017-04-28T11:10:06.163Z,8.3
2017-04-28T11:20:16.202Z,8.9
2017-04-28T11:30:25.846Z,9.2
2017-04-28T11:40:35.099Z,9.6
2017-04-28T11:50:44.093Z,10.7
2017-04-28T12:00:52.791Z,10.5
2017-04-28T12:11:01.429Z,10.3
2017-04-28T12:21:10.047Z,10.7
2017-04-28T12:31:18.680Z,10.8
2017-04-28T12:41:27.485Z,10.7
2017-04-28T12:51:36.484Z,10.7
2017-04-28T13:01:45.466Z,11.5
2017-04-28T13:11:54.192Z,11.4
2017-04-28T13:22:02.914Z,11.4
2017-04-28T13:32:11.721Z,11.1
2017-04-28T13:42:20.672Z,10.9
2017-04-28T13:52:29.900Z,10.2
2017-04-28T14:02:39.363Z,10
2017-04-28T14:12:49.029Z,9.9
2017-04-28T14:22:58.616Z,10
2017-04-28T14:33:08.080Z,10.6
2017-04-28T14:43:17.342Z,10.9
2017-04-28T14:53:26.452Z,10.9
2017-04-28T15:03:35.568Z,11.1
2017-04-28T15:13:44.680Z,11.2
2017-04-28T15:23:53.927Z,10.7
2017-04-28T15:34:03.389Z,10.6
2017-04-28T15:44:13.030Z,10.4
2017-04-28T15:54:22.854Z,10
2017-04-28T16:04:32.858Z,9.6
2017-04-28T16:14:43.098Z,8.4
2017-04-28T16:24:53.582Z,8.2
2017-04-28T16:35:04.134Z,8.1
2017-04-28T16:45:14.715Z,8.2
2017-04-28T16:55:25.242Z,8.3
2017-04-28T17:05:35.841Z,8.4
2017-04-28T17:15:46.150Z,8.6
2017-04-28T17:25:56.554Z,8.7
2017-04-28T17:36:06.959Z,8.8
2017-04-28T17:46:17.398Z,8.9
2017-04-28T17:56:27.921Z,9
2017-04-28T18:06:38.485Z,9.2
2017-04-28T18:16:48.989Z,9.3
2017-04-28T18:26:59.463Z,8.9
2017-04-28T18:37:09.991Z,8.9
2017-04-28T18:47:20.576Z,8.7
2017-04-28T18:57:31.299Z,8.5
2017-04-28T19:07:42.074Z,8.5
2017-04-28T19:17:52.882Z,8.5
2017-04-28T19:28:03.721Z,8.5
2017-04-28T19:38:14.527Z,8.5
2017-04-28T19:48:25.377Z,8.5
2017-04-28T19:58:36.202Z,8.4
2017-04-28T20:08:47.038Z,8.2
2017-04-28T20:18:57.924Z,7.9
2017-04-28T20:29:08.846Z,7.7
2017-04-28T20:39:19.832Z,7.6
2017-04-28T20:49:30.870Z,7.3
2017-04-28T20:59:41.944Z,7.1
2017-04-28T21:09:52.981Z,7
2017-04-28T21:20:04.068Z,6.8
2017-04-28T21:30:15.201Z,6.6
2017-04-28T21:40:26.414Z,6.5
2017-04-28T21:50:37.574Z,6.5
2017-04-28T22:00:48.759Z,6.5
2017-04-28T22:10:59.917Z,6.2
2017-04-28T22:21:11.097Z,6.3
2017-04-28T22:31:22.274Z,6.2
2017-04-28T22:41:33.460Z,6
2017-04-28T22:51:44.616Z,5.9
2017-04-28T23:01:55.818Z,6
2017-04-28T23:12:06.999Z,6
2017-04-28T23:22:18.208Z,5.8
2017-04-28T23:32:29.414Z,5.8
2017-04-28T23:42:40.630Z,5.5
2017-04-28T23:52:51.857Z,5.5
